createdAt,value
2019-04-30T00:03:42.734Z,57.10
2019-04-30T00:07:46.188Z,57.60
2019-04-30T00:11:50.705Z,58.00
2019-04-30T00:16:00.083Z,56.80
2019-04-30T00:20:00.111Z,56.40
2019-04-30T00:24:06.356Z,57.10
2019-04-30T00:28:08.832Z,56.60
2019-04-30T00:32:12.068Z,56.50
2019-04-30T00:36:20.820Z,57.50
2019-04-30T00:40:21.735Z,57.90
2019-04-30T00:44:28.396Z,57.60
2019-04-30T00:48:35.586Z,57.70
2019-04-30T00:52:38.568Z,57.50
2019-04-30T00:56:43.323Z,58.50
2019-04-30T01:01:17.734Z,58.10
2019-04-30T01:05:21.173Z,57.90
2019-04-30T01:09:25.685Z,58.60
2019-04-30T01:13:29.141Z,59.40
2019-04-30T01:17:32.509Z,58.80
2019-04-30T01:21:35.445Z,57.50
2019-04-30T01:25:38.891Z,57.80
2019-04-30T01:29:44.420Z,57.60
2019-04-30T01:33:49.102Z,58.60
2019-04-30T01:37:52.034Z,58.00
2019-04-30T01:41:55.392Z,58.70
2019-04-30T01:46:01.736Z,59.20
2019-04-30T01:50:04.991Z,58.10
2019-04-30T01:54:09.237Z,57.00
2019-04-30T01:58:21.504Z,58.70
2019-04-30T02:02:28.593Z,58.90
2019-04-30T02:06:31.067Z,59.60
2019-04-30T02:10:34.026Z,59.30
2019-04-30T02:14:36.997Z,57.80
2019-04-30T02:18:42.857Z,57.50
2019-04-30T02:22:45.788Z,58.90
2019-04-30T02:26:49.998Z,60.30
2019-04-30T02:30:54.591Z,61.20
2019-04-30T02:35:19.464Z,60.20
2019-04-30T02:39:24.968Z,59.80
2019-04-30T02:43:30.793Z,60.40
2019-04-30T02:47:34.991Z,61.00
2019-04-30T02:51:39.938Z,61.20
2019-04-30T02:55:44.793Z,60.20
2019-04-30T03:00:05.621Z,59.80
2019-04-30T03:04:09.836Z,60.00
2019-04-30T03:08:14.265Z,58.10
2019-04-30T03:12:17.239Z,59.20
2019-04-30T03:16:24.871Z,59.50
2019-04-30T03:20:39.875Z,60.00
2019-04-30T03:24:43.725Z,60.90
2019-04-30T03:28:49.190Z,60.30
2019-04-30T03:32:56.627Z,60.80
2019-04-30T03:36:56.271Z,60.70
2019-04-30T03:41:00.193Z,60.80
2019-04-30T03:45:04.705Z,60.70
2019-04-30T03:49:12.594Z,60.90
2019-04-30T03:53:12.469Z,60.70
2019-04-30T03:57:15.386Z,60.80
2019-04-30T04:01:32.059Z,60.40
2019-04-30T04:05:43.149Z,60.40
2019-04-30T04:09:52.468Z,61.50
2019-04-30T04:13:55.411Z,58.90
2019-04-30T04:18:00.357Z,61.00
2019-04-30T04:22:04.233Z,61.00
2019-04-30T04:26:09.421Z,61.50
2019-04-30T04:30:12.879Z,62.00
2019-04-30T04:34:15.864Z,62.60
2019-04-30T04:38:20.342Z,62.50
2019-04-30T04:42:23.623Z,62.10
2019-04-30T04:46:26.626Z,62.40
2019-04-30T04:50:30.736Z,61.50
2019-04-30T04:54:34.165Z,61.80
2019-04-30T04:58:39.995Z,62.10
2019-04-30T05:03:06.605Z,62.00
2019-04-30T05:07:29.280Z,64.20
2019-04-30T05:11:36.347Z,64.60
2019-04-30T05:15:39.311Z,64.80
2019-04-30T05:19:42.221Z,65.10
2019-04-30T05:23:45.268Z,64.60
2019-04-30T05:27:48.858Z,64.10
2019-04-30T05:31:52.135Z,64.10
2019-04-30T05:35:55.171Z,64.10
2019-04-30T05:39:58.793Z,64.10
2019-04-30T05:44:03.096Z,64.00
2019-04-30T05:48:07.101Z,64.10
2019-04-30T05:52:11.654Z,63.90
2019-04-30T05:56:14.891Z,64.00
2019-04-30T06:00:39.763Z,63.90
2019-04-30T06:04:42.358Z,64.70
2019-04-30T06:09:10.606Z,64.60
2019-04-30T06:13:19.926Z,64.70
2019-04-30T06:17:23.722Z,64.50
2019-04-30T06:21:26.711Z,64.90
2019-04-30T06:25:41.090Z,64.70
2019-04-30T06:29:36.009Z,64.90
2019-04-30T06:33:39.416Z,64.90
2019-04-30T06:37:42.618Z,64.40
2019-04-30T06:41:46.035Z,64.20
2019-04-30T06:45:51.282Z,64.20
2019-04-30T06:49:54.299Z,64.50
2019-04-30T06:53:58.672Z,64.70
2019-04-30T06:58:12.175Z,63.80
2019-04-30T07:02:09.267Z,64.40
2019-04-30T07:06:12.606Z,63.70
2019-04-30T07:10:29.351Z,64.30
2019-04-30T07:14:32.254Z,63.00
2019-04-30T07:18:35.401Z,61.90
2019-04-30T07:22:48.842Z,61.80
2019-04-30T07:26:48.784Z,61.80
2019-04-30T07:31:07.676Z,60.90
2019-04-30T07:34:59.277Z,60.80
2019-04-30T07:39:02.159Z,59.20
2019-04-30T07:43:05.399Z,58.20
2019-04-30T07:47:09.666Z,56.80
2019-04-30T07:51:13.213Z,56.60
2019-04-30T07:55:17.066Z,55.50
2019-04-30T07:59:20.293Z,56.00
2019-04-30T08:03:59.043Z,54.60
2019-04-30T08:08:20.250Z,55.40
2019-04-30T08:12:09.372Z,54.90
2019-04-30T08:16:16.292Z,53.90
2019-04-30T08:20:17.044Z,52.90
2019-04-30T08:24:19.986Z,53.00
2019-04-30T08:28:22.996Z,53.20
2019-04-30T08:32:26.043Z,53.40
2019-04-30T08:36:29.860Z,51.60
2019-04-30T08:40:33.462Z,51.60
2019-04-30T08:44:36.395Z,51.90
2019-04-30T08:48:49.489Z,51.50
2019-04-30T08:52:44.312Z,49.80
2019-04-30T08:56:47.294Z,50.90
2019-04-30T09:00:50.459Z,50.10
2019-04-30T09:04:56.149Z,50.80
2019-04-30T09:09:11.079Z,50.60
2019-04-30T09:13:14.478Z,49.60
2019-04-30T09:17:19.910Z,49.30
2019-04-30T09:21:23.320Z,48.80
2019-04-30T09:25:28.528Z,49.60
2019-04-30T09:29:31.239Z,48.10
2019-04-30T09:33:34.385Z,47.90
2019-04-30T09:37:39.035Z,48.40
2019-04-30T09:41:42.485Z,46.90
2019-04-30T09:45:45.751Z,45.50
2019-04-30T09:49:49.335Z,46.60
2019-04-30T09:53:59.340Z,43.50
2019-04-30T09:58:13.671Z,44.80
2019-04-30T10:02:05.695Z,42.60
2019-04-30T10:06:09.017Z,43.20
2019-04-30T10:10:18.847Z,42.10
2019-04-30T10:14:22.044Z,40.20
2019-04-30T10:18:24.977Z,37.30
2019-04-30T10:22:28.101Z,36.20
2019-04-30T10:26:31.069Z,36.20
2019-04-30T10:30:37.830Z,35.80
2019-04-30T10:34:40.881Z,36.00
2019-04-30T10:38:46.981Z,34.70
2019-04-30T10:42:51.355Z,35.20
2019-04-30T10:46:54.372Z,36.60
2019-04-30T10:50:59.248Z,35.70
2019-04-30T10:55:04.544Z,34.70
2019-04-30T10:59:07.469Z,33.90
2019-04-30T11:03:19.826Z,33.90
2019-04-30T11:07:18.656Z,34.60
2019-04-30T11:11:21.925Z,32.00
2019-04-30T11:15:24.918Z,32.00
2019-04-30T11:19:29.237Z,31.50
2019-04-30T11:23:32.849Z,32.00
2019-04-30T11:27:36.655Z,31.80
2019-04-30T11:31:48.992Z,32.20
2019-04-30T11:36:02.058Z,30.60
2019-04-30T11:39:57.262Z,29.30
2019-04-30T11:44:00.211Z,30.00
2019-04-30T11:48:03.570Z,29.90
2019-04-30T11:52:06.569Z,28.90
2019-04-30T11:56:09.613Z,29.50
2019-04-30T12:00:18.761Z,28.50
2019-04-30T12:04:21.956Z,30.20
2019-04-30T12:08:29.718Z,27.40
2019-04-30T12:12:32.828Z,27.80
2019-04-30T12:16:36.219Z,28.40
2019-04-30T12:20:39.245Z,29.40
2019-04-30T12:24:42.227Z,29.10
2019-04-30T12:28:45.274Z,29.60
2019-04-30T12:32:49.350Z,28.20
2019-04-30T12:36:52.877Z,28.10
2019-04-30T12:40:55.921Z,28.40
2019-04-30T12:44:59.946Z,28.20
2019-04-30T12:49:13.846Z,28.50
2019-04-30T12:53:23.382Z,28.70
2019-04-30T12:57:58.227Z,28.60
2019-04-30T13:01:52.676Z,28.60
2019-04-30T13:05:56.372Z,28.50
2019-04-30T13:10:02.722Z,29.60
2019-04-30T13:14:06.608Z,30.00
2019-04-30T13:18:10.361Z,29.80
2019-04-30T13:22:15.088Z,31.10
2019-04-30T13:26:18.623Z,29.80
2019-04-30T13:30:29.820Z,29.60
2019-04-30T13:35:00.675Z,34.30
2019-04-30T13:39:15.666Z,39.50
2019-04-30T13:43:20.496Z,39.90
2019-04-30T13:47:23.461Z,41.80
2019-04-30T13:51:26.488Z,43.10
2019-04-30T13:55:42.474Z,41.30
2019-04-30T13:59:34.472Z,39.60
2019-04-30T14:03:50.678Z,38.00
2019-04-30T14:08:11.763Z,36.70
2019-04-30T14:12:14.909Z,35.60
2019-04-30T14:16:19.784Z,34.30
2019-04-30T14:20:23.005Z,35.70
2019-04-30T14:24:26.084Z,33.90
2019-04-30T14:28:29.238Z,34.60
2019-04-30T14:32:32.261Z,36.00
2019-04-30T14:36:35.285Z,35.70
2019-04-30T14:40:40.455Z,36.30
2019-04-30T14:44:43.814Z,36.20
2019-04-30T14:48:51.874Z,37.30
2019-04-30T14:53:06.884Z,40.20
2019-04-30T14:57:31.420Z,41.90
2019-04-30T15:01:59.143Z,44.90
2019-04-30T15:06:04.020Z,45.70
2019-04-30T15:10:07.355Z,45.60
2019-04-30T15:14:11.806Z,46.10
2019-04-30T15:18:15.046Z,46.50
2019-04-30T15:22:19.005Z,47.50
2019-04-30T15:26:25.019Z,48.00
2019-04-30T15:30:28.904Z,48.40
2019-04-30T15:34:32.761Z,49.60
2019-04-30T15:38:55.559Z,48.80
2019-04-30T15:43:02.477Z,49.00
2019-04-30T15:47:06.435Z,49.30
2019-04-30T15:51:10.559Z,49.60
2019-04-30T15:55:13.945Z,49.30
2019-04-30T15:59:39.353Z,48.20
2019-04-30T16:03:47.228Z,48.90
2019-04-30T16:08:00.444Z,49.60
2019-04-30T16:12:14.422Z,49.50
2019-04-30T16:16:19.215Z,50.00
2019-04-30T16:20:23.183Z,49.70
2019-04-30T16:24:28.627Z,48.90
2019-04-30T16:28:32.245Z,50.30
2019-04-30T16:32:40.202Z,50.60
2019-04-30T16:36:44.033Z,50.00
2019-04-30T16:40:48.864Z,50.40
2019-04-30T16:44:52.577Z,50.60
2019-04-30T16:48:56.187Z,50.70
2019-04-30T16:52:59.646Z,50.80
2019-04-30T16:57:06.605Z,51.00
2019-04-30T17:01:10.387Z,51.80
2019-04-30T17:05:23.075Z,52.40
2019-04-30T17:09:39.183Z,52.90
2019-04-30T17:13:57.944Z,52.30
2019-04-30T17:18:01.762Z,52.50
2019-04-30T17:22:05.586Z,53.00
2019-04-30T17:26:16.019Z,52.90
2019-04-30T17:30:22.001Z,54.00
2019-04-30T17:34:26.610Z,53.60
2019-04-30T17:38:30.339Z,53.30
2019-04-30T17:42:33.845Z,53.70
2019-04-30T17:46:38.771Z,53.70
2019-04-30T17:50:42.574Z,53.80
2019-04-30T17:54:49.195Z,53.90
2019-04-30T17:58:54.286Z,54.20
2019-04-30T18:02:57.938Z,54.30
2019-04-30T18:07:01.599Z,54.80
2019-04-30T18:11:05.272Z,54.70
2019-04-30T18:15:15.066Z,55.70
2019-04-30T18:19:28.742Z,55.30
2019-04-30T18:23:55.038Z,55.60
2019-04-30T18:28:00.332Z,55.10
2019-04-30T18:32:03.900Z,55.50
2019-04-30T18:36:07.092Z,55.60
2019-04-30T18:40:10.258Z,55.80
2019-04-30T18:44:14.519Z,56.80
2019-04-30T18:48:19.526Z,57.00
2019-04-30T18:52:22.668Z,57.40
2019-04-30T18:56:25.669Z,57.90
2019-04-30T19:00:59.176Z,58.70
2019-04-30T19:05:02.339Z,58.30
2019-04-30T19:09:29.657Z,58.60
2019-04-30T19:13:51.163Z,59.10
2019-04-30T19:18:12.149Z,59.20
2019-04-30T19:22:15.099Z,60.00
2019-04-30T19:26:19.001Z,60.00
2019-04-30T19:30:22.914Z,60.10
2019-04-30T19:34:28.775Z,60.60
2019-04-30T19:38:31.933Z,60.60
2019-04-30T19:42:34.901Z,60.50
2019-04-30T19:46:37.834Z,60.50
2019-04-30T19:50:40.867Z,60.60
2019-04-30T19:54:43.827Z,61.80
2019-04-30T19:58:59.135Z,62.00
2019-04-30T20:02:51.587Z,62.20
2019-04-30T20:06:54.578Z,62.10
2019-04-30T20:11:02.052Z,62.00
2019-04-30T20:15:17.342Z,62.20
2019-04-30T20:19:12.552Z,62.50
2019-04-30T20:23:15.571Z,62.70
2019-04-30T20:27:20.166Z,62.60
2019-04-30T20:31:23.136Z,62.60
2019-04-30T20:35:26.198Z,62.40
2019-04-30T20:39:39.445Z,62.10
2019-04-30T20:43:42.802Z,62.30
2019-04-30T20:47:45.798Z,62.60
2019-04-30T20:51:55.536Z,62.30
2019-04-30T20:55:53.581Z,62.00
2019-04-30T20:59:56.538Z,62.20
2019-04-30T21:03:59.682Z,62.60
2019-04-30T21:08:02.578Z,63.40
2019-04-30T21:12:06.070Z,63.00
2019-04-30T21:16:11.683Z,63.80
2019-04-30T21:20:14.847Z,64.60
2019-04-30T21:24:17.825Z,63.30
2019-04-30T21:28:20.797Z,63.70
2019-04-30T21:32:29.258Z,62.80
2019-04-30T21:36:32.256Z,63.30
2019-04-30T21:40:36.686Z,63.00
2019-04-30T21:44:39.853Z,63.90
2019-04-30T21:48:42.864Z,64.60
2019-04-30T21:52:45.901Z,65.50
2019-04-30T21:56:48.893Z,65.20
2019-04-30T22:01:23.382Z,65.10
2019-04-30T22:05:26.340Z,64.80
2019-04-30T22:09:31.181Z,64.90
2019-04-30T22:13:34.203Z,64.90
2019-04-30T22:17:39.093Z,64.90
2019-04-30T22:21:43.847Z,64.80
2019-04-30T22:25:46.881Z,65.20
2019-04-30T22:29:51.369Z,65.60
2019-04-30T22:33:58.963Z,65.00
2019-04-30T22:38:03.657Z,64.90
2019-04-30T22:42:39.762Z,64.90
2019-04-30T22:46:43.218Z,64.30
2019-04-30T22:50:47.391Z,64.90
2019-04-30T22:54:50.463Z,65.00
2019-04-30T22:58:53.590Z,65.30
2019-04-30T23:02:59.433Z,65.00
2019-04-30T23:07:02.628Z,64.70
2019-04-30T23:11:07.421Z,65.40
2019-04-30T23:15:10.731Z,65.10
2019-04-30T23:19:13.706Z,65.10
2019-04-30T23:23:16.757Z,65.60
2019-04-30T23:27:19.786Z,66.50
2019-04-30T23:31:22.819Z,66.00
2019-04-30T23:35:25.928Z,65.70
2019-04-30T23:39:29.075Z,65.50
2019-04-30T23:43:32.022Z,64.70
2019-04-30T23:47:35.042Z,65.30
2019-04-30T23:51:38.227Z,64.80
2019-04-30T23:55:41.471Z,65.10
2019-04-30T23:59:44.532Z,64.80
